sensor_id;sensor_type;location;lat;lon;timestamp;P1;durP1;ratioP1;P2;durP2;ratioP2
52072;SDS011;38074;51.232;6.826;2023-07-20T00:05:15;0.30;;;0.20;;
52072;SDS011;38074;51.232;6.826;2023-07-20T00:12:33;0.35;;;0.20;;
52072;SDS011;38074;51.232;6.826;2023-07-20T00:19:48;0.30;;;0.20;;
52072;SDS011;38074;51.232;6.826;2023-07-20T00:27:04;0.37;;;0.20;;
52072;SDS011;38074;51.232;6.826;2023-07-20T00:34:20;0.73;;;0.20;;
52072;SDS011;38074;51.232;6.826;2023-07-20T00:41:35;0.30;;;0.20;;
52072;SDS011;38074;51.232;6.826;2023-07-20T00:48:51;0.37;;;0.30;;
52072;SDS011;38074;51.232;6.826;2023-07-20T00:56:07;0.38;;;0.25;;
52072;SDS011;38074;51.232;6.826;2023-07-20T01:03:23;0.45;;;0.20;;
52072;SDS011;38074;51.232;6.826;2023-07-20T01:10:40;0.30;;;0.20;;
52072;SDS011;38074;51.232;6.826;2023-07-20T01:18:09;0.20;;;0.20;;
52072;SDS011;38074;51.232;6.826;2023-07-20T01:33:13;0.43;;;0.30;;
52072;SDS011;38074;51.232;6.826;2023-07-20T01:40:30;0.38;;;0.20;;
52072;SDS011;38074;51.232;6.826;2023-07-20T01:47:46;1.13;;;0.30;;
52072;SDS011;38074;51.232;6.826;2023-07-20T01:55:02;0.40;;;0.20;;
52072;SDS011;38074;51.232;6.826;2023-07-20T02:02:18;0.30;;;0.20;;
52072;SDS011;38074;51.232;6.826;2023-07-20T02:09:35;0.38;;;0.20;;
52072;SDS011;38074;51.232;6.826;2023-07-20T02:16:51;0.30;;;0.20;;
52072;SDS011;38074;51.232;6.826;2023-07-20T02:24:07;0.50;;;0.30;;
52072;SDS011;38074;51.232;6.826;2023-07-20T02:31:22;0.30;;;0.27;;
52072;SDS011;38074;51.232;6.826;2023-07-20T02:38:38;0.47;;;0.30;;
52072;SDS011;38074;51.232;6.826;2023-07-20T02:45:53;0.40;;;0.30;;
52072;SDS011;38074;51.232;6.826;2023-07-20T02:53:09;0.73;;;0.33;;
52072;SDS011;38074;51.232;6.826;2023-07-20T03:00:24;0.40;;;0.20;;
52072;SDS011;38074;51.232;6.826;2023-07-20T03:07:40;0.40;;;0.30;;
52072;SDS011;38074;51.232;6.826;2023-07-20T03:14:58;0.20;;;0.20;;
52072;SDS011;38074;51.232;6.826;2023-07-20T03:22:13;0.87;;;0.40;;
52072;SDS011;38074;51.232;6.826;2023-07-20T03:29:31;0.53;;;0.30;;
52072;SDS011;38074;51.232;6.826;2023-07-20T03:36:47;0.50;;;0.30;;
52072;SDS011;38074;51.232;6.826;2023-07-20T03:44:03;0.60;;;0.40;;
52072;SDS011;38074;51.232;6.826;2023-07-20T03:51:18;0.40;;;0.30;;
52072;SDS011;38074;51.232;6.826;2023-07-20T03:58:34;0.40;;;0.23;;
52072;SDS011;38074;51.232;6.826;2023-07-20T04:05:50;0.40;;;0.30;;
52072;SDS011;38074;51.232;6.826;2023-07-20T04:13:05;0.50;;;0.30;;
52072;SDS011;38074;51.232;6.826;2023-07-20T04:20:21;0.32;;;0.22;;
52072;SDS011;38074;51.232;6.826;2023-07-20T04:27:37;0.40;;;0.20;;
52072;SDS011;38074;51.232;6.826;2023-07-20T04:34:52;0.40;;;0.20;;
52072;SDS011;38074;51.232;6.826;2023-07-20T04:42:08;0.43;;;0.20;;
52072;SDS011;38074;51.232;6.826;2023-07-20T04:49:23;0.50;;;0.27;;
52072;SDS011;38074;51.232;6.826;2023-07-20T04:56:39;0.40;;;0.30;;
52072;SDS011;38074;51.232;6.826;2023-07-20T05:03:54;0.60;;;0.40;;
52072;SDS011;38074;51.232;6.826;2023-07-20T05:11:10;0.77;;;0.30;;
52072;SDS011;38074;51.232;6.826;2023-07-20T05:25:42;0.55;;;0.30;;
52072;SDS011;38074;51.232;6.826;2023-07-20T05:32:57;0.40;;;0.20;;
52072;SDS011;38074;51.232;6.826;2023-07-20T05:40:16;0.43;;;0.30;;
52072;SDS011;38074;51.232;6.826;2023-07-20T05:47:33;0.52;;;0.40;;
52072;SDS011;38074;51.232;6.826;2023-07-20T05:54:49;0.30;;;0.20;;
52072;SDS011;38074;51.232;6.826;2023-07-20T06:02:05;0.33;;;0.20;;
52072;SDS011;38074;51.232;6.826;2023-07-20T06:09:21;0.13;;;0.13;;
52072;SDS011;38074;51.232;6.826;2023-07-20T06:16:36;0.50;;;0.30;;
52072;SDS011;38074;51.232;6.826;2023-07-20T06:23:52;0.23;;;0.23;;
52072;SDS011;38074;51.232;6.826;2023-07-20T06:31:07;0.30;;;0.30;;
52072;SDS011;38074;51.232;6.826;2023-07-20T06:38:23;0.60;;;0.30;;
52072;SDS011;38074;51.232;6.826;2023-07-20T06:45:38;0.50;;;0.30;;
52072;SDS011;38074;51.232;6.826;2023-07-20T06:52:54;0.30;;;0.20;;
52072;SDS011;38074;51.232;6.826;2023-07-20T07:00:09;0.47;;;0.30;;
52072;SDS011;38074;51.232;6.826;2023-07-20T07:14:42;0.47;;;0.30;;
52072;SDS011;38074;51.232;6.826;2023-07-20T07:21:57;0.50;;;0.40;;
52072;SDS011;38074;51.232;6.826;2023-07-20T07:29:13;0.27;;;0.20;;
52072;SDS011;38074;51.232;6.826;2023-07-20T07:36:28;0.30;;;0.30;;
52072;SDS011;38074;51.232;6.826;2023-07-20T07:43:44;0.60;;;0.30;;
52072;SDS011;38074;51.232;6.826;2023-07-20T07:50:59;0.30;;;0.23;;
52072;SDS011;38074;51.232;6.826;2023-07-20T07:58:15;0.50;;;0.40;;
52072;SDS011;38074;51.232;6.826;2023-07-20T08:05:30;0.30;;;0.30;;
52072;SDS011;38074;51.232;6.826;2023-07-20T08:12:46;0.30;;;0.30;;
52072;SDS011;38074;51.232;6.826;2023-07-20T08:20:01;0.30;;;0.27;;
52072;SDS011;38074;51.232;6.826;2023-07-20T08:27:17;0.43;;;0.17;;
52072;SDS011;38074;51.232;6.826;2023-07-20T08:34:32;0.20;;;0.20;;
52072;SDS011;38074;51.232;6.826;2023-07-20T08:41:48;0.40;;;0.20;;
52072;SDS011;38074;51.232;6.826;2023-07-20T08:49:04;0.27;;;0.27;;
52072;SDS011;38074;51.232;6.826;2023-07-20T08:56:21;0.50;;;0.30;;
52072;SDS011;38074;51.232;6.826;2023-07-20T09:03:40;0.40;;;0.20;;
52072;SDS011;38074;51.232;6.826;2023-07-20T09:10:58;0.47;;;0.22;;
52072;SDS011;38074;51.232;6.826;2023-07-20T09:18:22;0.40;;;0.30;;
52072;SDS011;38074;51.232;6.826;2023-07-20T09:25:39;0.17;;;0.17;;
52072;SDS011;38074;51.232;6.826;2023-07-20T09:32:55;0.30;;;0.20;;
52072;SDS011;38074;51.232;6.826;2023-07-20T09:40:11;0.50;;;0.37;;
52072;SDS011;38074;51.232;6.826;2023-07-20T09:47:31;0.40;;;0.30;;
52072;SDS011;38074;51.232;6.826;2023-07-20T09:54:51;0.40;;;0.20;;
52072;SDS011;38074;51.232;6.826;2023-07-20T10:02:23;0.20;;;0.20;;
52072;SDS011;38074;51.232;6.826;2023-07-20T10:09:44;0.28;;;0.20;;
52072;SDS011;38074;51.232;6.826;2023-07-20T10:17:00;0.50;;;0.30;;
52072;SDS011;38074;51.232;6.826;2023-07-20T10:31:33;0.28;;;0.17;;
52072;SDS011;38074;51.232;6.826;2023-07-20T10:38:53;0.50;;;0.22;;
52072;SDS011;38074;51.232;6.826;2023-07-20T10:46:13;0.25;;;0.20;;
52072;SDS011;38074;51.232;6.826;2023-07-20T10:53:28;0.30;;;0.20;;
52072;SDS011;38074;51.232;6.826;2023-07-20T11:00:56;0.20;;;0.10;;
52072;SDS011;38074;51.232;6.826;2023-07-20T11:08:16;0.45;;;0.20;;
52072;SDS011;38074;51.232;6.826;2023-07-20T11:23:13;0.30;;;0.20;;
52072;SDS011;38074;51.232;6.826;2023-07-20T11:30:32;0.30;;;0.10;;
52072;SDS011;38074;51.232;6.826;2023-07-20T11:37:48;0.35;;;0.20;;
52072;SDS011;38074;51.232;6.826;2023-07-20T11:45:04;0.50;;;0.13;;
52072;SDS011;38074;51.232;6.826;2023-07-20T11:52:22;0.15;;;0.15;;
52072;SDS011;38074;51.232;6.826;2023-07-20T11:59:38;0.22;;;0.13;;
52072;SDS011;38074;51.232;6.826;2023-07-20T12:07:08;0.20;;;0.10;;
52072;SDS011;38074;51.232;6.826;2023-07-20T12:14:24;0.20;;;0.10;;
52072;SDS011;38074;51.232;6.826;2023-07-20T12:21:41;0.10;;;0.10;;
52072;SDS011;38074;51.232;6.826;2023-07-20T12:28:57;0.25;;;0.10;;
52072;SDS011;38074;51.232;6.826;2023-07-20T12:36:13;0.20;;;0.10;;
52072;SDS011;38074;51.232;6.826;2023-07-20T12:43:29;0.10;;;0.10;;
52072;SDS011;38074;51.232;6.826;2023-07-20T12:50:44;0.10;;;0.10;;
52072;SDS011;38074;51.232;6.826;2023-07-20T12:58:00;0.07;;;0.07;;
52072;SDS011;38074;51.232;6.826;2023-07-20T13:05:15;0.50;;;0.20;;
52072;SDS011;38074;51.232;6.826;2023-07-20T13:12:32;0.20;;;0.10;;
52072;SDS011;38074;51.232;6.826;2023-07-20T13:19:48;0.10;;;0.10;;
52072;SDS011;38074;51.232;6.826;2023-07-20T13:27:04;0.20;;;0.10;;
52072;SDS011;38074;51.232;6.826;2023-07-20T13:34:20;0.10;;;0.10;;
52072;SDS011;38074;51.232;6.826;2023-07-20T13:41:35;0.40;;;0.10;;
52072;SDS011;38074;51.232;6.826;2023-07-20T13:48:51;0.10;;;0.10;;
52072;SDS011;38074;51.232;6.826;2023-07-20T13:56:06;0.20;;;0.10;;
52072;SDS011;38074;51.232;6.826;2023-07-20T14:03:22;0.20;;;0.10;;
52072;SDS011;38074;51.232;6.826;2023-07-20T14:10:37;0.17;;;0.10;;
52072;SDS011;38074;51.232;6.826;2023-07-20T14:17:53;0.10;;;0.10;;
52072;SDS011;38074;51.232;6.826;2023-07-20T14:25:09;0.20;;;0.10;;
52072;SDS011;38074;51.232;6.826;2023-07-20T14:32:24;0.17;;;0.10;;
52072;SDS011;38074;51.232;6.826;2023-07-20T14:39:40;0.10;;;0.10;;
52072;SDS011;38074;51.232;6.826;2023-07-20T14:46:55;0.20;;;0.10;;
52072;SDS011;38074;51.232;6.826;2023-07-20T14:54:11;0.10;;;0.10;;
52072;SDS011;38074;51.232;6.826;2023-07-20T15:01:27;0.13;;;0.10;;
52072;SDS011;38074;51.232;6.826;2023-07-20T15:08:42;0.20;;;0.10;;
52072;SDS011;38074;51.232;6.826;2023-07-20T15:15:58;0.10;;;0.10;;
52072;SDS011;38074;51.232;6.826;2023-07-20T15:23:13;0.10;;;0.10;;
52072;SDS011;38074;51.232;6.826;2023-07-20T15:30:29;0.20;;;0.10;;
52072;SDS011;38074;51.232;6.826;2023-07-20T15:37:44;0.20;;;0.10;;
52072;SDS011;38074;51.232;6.826;2023-07-20T15:45:00;0.27;;;0.13;;
52072;SDS011;38074;51.232;6.826;2023-07-20T15:52:15;0.20;;;0.10;;
52072;SDS011;38074;51.232;6.826;2023-07-20T15:59:32;0.10;;;0.10;;
52072;SDS011;38074;51.232;6.826;2023-07-20T16:06:47;0.27;;;0.20;;
52072;SDS011;38074;51.232;6.826;2023-07-20T16:14:03;0.13;;;0.10;;
52072;SDS011;38074;51.232;6.826;2023-07-20T16:21:20;0.25;;;0.15;;
52072;SDS011;38074;51.232;6.826;2023-07-20T16:28:36;0.30;;;0.13;;
52072;SDS011;38074;51.232;6.826;2023-07-20T16:35:51;0.17;;;0.10;;
52072;SDS011;38074;51.232;6.826;2023-07-20T16:43:09;0.20;;;0.10;;
52072;SDS011;38074;51.232;6.826;2023-07-20T16:50:24;0.10;;;0.10;;
52072;SDS011;38074;51.232;6.826;2023-07-20T16:57:40;0.10;;;0.10;;
52072;SDS011;38074;51.232;6.826;2023-07-20T17:04:56;0.10;;;0.10;;
52072;SDS011;38074;51.232;6.826;2023-07-20T17:12:11;0.40;;;0.10;;
52072;SDS011;38074;51.232;6.826;2023-07-20T17:19:27;0.10;;;0.10;;
52072;SDS011;38074;51.232;6.826;2023-07-20T17:26:42;0.10;;;0.10;;
52072;SDS011;38074;51.232;6.826;2023-07-20T17:33:58;0.10;;;0.10;;
52072;SDS011;38074;51.232;6.826;2023-07-20T17:41:14;0.17;;;0.10;;
52072;SDS011;38074;51.232;6.826;2023-07-20T17:48:30;0.17;;;0.10;;
52072;SDS011;38074;51.232;6.826;2023-07-20T18:03:02;0.10;;;0.10;;
52072;SDS011;38074;51.232;6.826;2023-07-20T18:10:17;0.10;;;0.10;;
52072;SDS011;38074;51.232;6.826;2023-07-20T18:17:34;0.33;;;0.10;;
52072;SDS011;38074;51.232;6.826;2023-07-20T18:24:50;0.52;;;0.20;;
52072;SDS011;38074;51.232;6.826;2023-07-20T18:32:06;0.40;;;0.30;;
52072;SDS011;38074;51.232;6.826;2023-07-20T18:39:21;0.53;;;0.30;;
52072;SDS011;38074;51.232;6.826;2023-07-20T18:46:37;0.50;;;0.30;;
52072;SDS011;38074;51.232;6.826;2023-07-20T18:53:52;0.67;;;0.30;;
52072;SDS011;38074;51.232;6.826;2023-07-20T19:01:09;0.65;;;0.30;;
52072;SDS011;38074;51.232;6.826;2023-07-20T19:08:24;0.43;;;0.20;;
52072;SDS011;38074;51.232;6.826;2023-07-20T19:15:46;0.30;;;0.20;;
52072;SDS011;38074;51.232;6.826;2023-07-20T19:23:03;0.40;;;0.20;;
52072;SDS011;38074;51.232;6.826;2023-07-20T19:30:18;0.20;;;0.20;;
52072;SDS011;38074;51.232;6.826;2023-07-20T19:37:34;0.60;;;0.20;;
52072;SDS011;38074;51.232;6.826;2023-07-20T19:44:50;0.33;;;0.23;;
52072;SDS011;38074;51.232;6.826;2023-07-20T19:52:06;0.40;;;0.30;;
52072;SDS011;38074;51.232;6.826;2023-07-20T19:59:21;0.40;;;0.20;;
52072;SDS011;38074;51.232;6.826;2023-07-20T20:06:38;0.15;;;0.15;;
52072;SDS011;38074;51.232;6.826;2023-07-20T20:13:53;0.37;;;0.20;;
52072;SDS011;38074;51.232;6.826;2023-07-20T20:21:09;0.33;;;0.20;;
52072;SDS011;38074;51.232;6.826;2023-07-20T20:28:26;0.40;;;0.22;;
52072;SDS011;38074;51.232;6.826;2023-07-20T20:35:42;0.40;;;0.27;;
52072;SDS011;38074;51.232;6.826;2023-07-20T20:42:59;0.25;;;0.20;;
52072;SDS011;38074;51.232;6.826;2023-07-20T20:57:34;0.52;;;0.30;;
52072;SDS011;38074;51.232;6.826;2023-07-20T21:04:50;0.53;;;0.30;;
52072;SDS011;38074;51.232;6.826;2023-07-20T21:12:06;0.60;;;0.20;;
52072;SDS011;38074;51.232;6.826;2023-07-20T21:19:22;0.30;;;0.10;;
52072;SDS011;38074;51.232;6.826;2023-07-20T21:26:37;0.20;;;0.20;;
52072;SDS011;38074;51.232;6.826;2023-07-20T21:33:53;0.50;;;0.20;;
52072;SDS011;38074;51.232;6.826;2023-07-20T21:41:08;0.30;;;0.13;;
52072;SDS011;38074;51.232;6.826;2023-07-20T21:48:25;0.30;;;0.20;;
52072;SDS011;38074;51.232;6.826;2023-07-20T21:55:40;0.30;;;0.13;;
52072;SDS011;38074;51.232;6.826;2023-07-20T22:02:56;1.13;;;0.20;;
52072;SDS011;38074;51.232;6.826;2023-07-20T22:10:11;0.10;;;0.10;;
52072;SDS011;38074;51.232;6.826;2023-07-20T22:17:27;0.40;;;0.20;;
52072;SDS011;38074;51.232;6.826;2023-07-20T22:24:42;0.10;;;0.10;;
52072;SDS011;38074;51.232;6.826;2023-07-20T22:31:58;0.30;;;0.20;;
52072;SDS011;38074;51.232;6.826;2023-07-20T22:39:14;0.33;;;0.20;;
52072;SDS011;38074;51.232;6.826;2023-07-20T22:46:29;0.43;;;0.20;;
52072;SDS011;38074;51.232;6.826;2023-07-20T22:53:45;0.30;;;0.10;;
52072;SDS011;38074;51.232;6.826;2023-07-20T23:01:01;0.20;;;0.20;;
52072;SDS011;38074;51.232;6.826;2023-07-20T23:08:22;0.35;;;0.20;;
52072;SDS011;38074;51.232;6.826;2023-07-20T23:15:37;0.37;;;0.20;;
52072;SDS011;38074;51.232;6.826;2023-07-20T23:22:53;0.47;;;0.20;;
52072;SDS011;38074;51.232;6.826;2023-07-20T23:30:11;0.28;;;0.20;;
52072;SDS011;38074;51.232;6.826;2023-07-20T23:37:28;0.32;;;0.20;;
52072;SDS011;38074;51.232;6.826;2023-07-20T23:44:44;0.40;;;0.20;;
52072;SDS011;38074;51.232;6.826;2023-07-20T23:51:59;0.20;;;0.20;;
52072;SDS011;38074;51.232;6.826;2023-07-20T23:59:14;0.30;;;0.20;;
